createdAt,value
2022-11-16T00:02:14.447Z,100248.44
2022-11-16T00:04:43.236Z,100231.81
2022-11-16T00:07:13.065Z,100219.41
2022-11-16T00:09:41.198Z,100215.84
2022-11-16T00:12:11.284Z,100224.41
2022-11-16T00:14:39.413Z,100219.13
2022-11-16T00:17:07.818Z,100220.22
2022-11-16T00:19:35.936Z,100213.97
2022-11-16T00:22:03.896Z,100211.25
2022-11-16T00:24:33.557Z,100210.59
2022-11-16T00:27:01.717Z,100206.78
2022-11-16T00:29:31.477Z,100206.22
2022-11-16T00:31:59.656Z,100193.75
2022-11-16T00:34:29.136Z,100185.75
2022-11-16T00:36:57.267Z,100198.31
2022-11-16T00:39:26.865Z,100192.28
2022-11-16T00:41:55.007Z,100194.22
2022-11-16T00:44:24.896Z,100181.13
2022-11-16T00:46:53.205Z,100178.97
2022-11-16T00:49:22.779Z,100182.69
2022-11-16T00:51:51.105Z,100186.41
2022-11-16T00:54:19.495Z,100178.25
2022-11-16T00:56:47.757Z,100182.81
2022-11-16T00:59:16.234Z,100173.94
2022-11-16T01:01:44.611Z,100168.16
2022-11-16T01:04:13.477Z,100166.91
2022-11-16T01:06:42.329Z,100172.38
2022-11-16T01:09:11.816Z,100159.97
2022-11-16T01:11:58.857Z,100152.28
2022-11-16T01:14:27.843Z,100153.94
2022-11-16T01:16:56.024Z,100146.97
2022-11-16T01:19:24.529Z,100142.75
2022-11-16T01:21:52.577Z,100148.97
2022-11-16T01:24:21.051Z,100146.91
2022-11-16T01:26:50.032Z,100133.09
2022-11-16T01:29:19.686Z,100134.41
2022-11-16T01:31:55.286Z,100127.38
2022-11-16T01:34:24.339Z,100123.66
2022-11-16T01:36:54.775Z,100124.06
2022-11-16T01:39:25.636Z,100124.06
2022-11-16T01:41:57.676Z,100109.44
2022-11-16T01:44:32.026Z,100108.09
2022-11-16T01:47:13.085Z,100103.84
2022-11-16T01:49:55.306Z,100103.97
2022-11-16T01:52:32.756Z,100101.84
2022-11-16T01:55:02.746Z,100107.34
2022-11-16T01:57:43.425Z,100100.13
2022-11-16T02:00:13.158Z,100098.66
2022-11-16T02:02:53.555Z,100093.66
2022-11-16T02:05:58.548Z,100089.22
2022-11-16T02:09:01.056Z,100082.94
2022-11-16T02:11:53.655Z,100071.59
2022-11-16T02:14:43.765Z,100074.19
2022-11-16T02:17:26.925Z,100074.88
2022-11-16T02:20:24.075Z,100063.28
2022-11-16T02:23:05.064Z,100059.84
2022-11-16T02:25:53.346Z,100056.78
2022-11-16T02:29:13.322Z,100041.53
2022-11-16T02:32:06.156Z,100039.22
2022-11-16T02:34:38.770Z,100033.06
2022-11-16T02:37:12.250Z,100030.78
2022-11-16T02:39:41.635Z,100024.63
2022-11-16T02:42:15.432Z,100023.97
2022-11-16T02:44:47.101Z,100024.75
2022-11-16T02:47:25.443Z,100015.88
2022-11-16T02:50:02.351Z,100013.00
2022-11-16T02:52:30.822Z,100007.00
2022-11-16T02:54:59.211Z,100008.88
2022-11-16T02:57:49.713Z,100009.00
2022-11-16T03:00:24.730Z,100007.00
2022-11-16T03:03:04.570Z,100009.06
2022-11-16T03:05:43.938Z,100004.34
2022-11-16T03:08:26.050Z,99999.31
2022-11-16T03:11:19.401Z,99994.97
2022-11-16T03:13:49.773Z,99998.13
2022-11-16T03:16:22.942Z,99992.97
2022-11-16T03:18:53.542Z,99996.53
2022-11-16T03:21:33.662Z,99984.94
2022-11-16T03:24:04.163Z,99981.50
2022-11-16T03:26:42.957Z,99978.25
2022-11-16T03:29:22.031Z,99974.47
2022-11-16T03:31:59.411Z,99963.03
2022-11-16T03:34:32.071Z,99964.44
2022-11-16T03:37:01.052Z,99957.41
2022-11-16T03:39:34.531Z,99957.84
2022-11-16T03:42:07.752Z,99950.56
2022-11-16T03:44:37.022Z,99952.41
2022-11-16T03:47:07.810Z,99952.13
2022-11-16T03:49:36.272Z,99956.19
2022-11-16T03:52:06.491Z,99953.41
2022-11-16T03:54:36.500Z,99947.53
2022-11-16T03:57:04.562Z,99947.53
2022-11-16T03:59:34.144Z,99951.75
2022-11-16T04:02:02.204Z,99947.69
2022-11-16T04:05:03.150Z,99949.78
2022-11-16T04:07:50.181Z,99950.56
2022-11-16T04:10:36.971Z,99953.63
2022-11-16T04:13:24.375Z,99947.13
2022-11-16T04:16:11.381Z,99960.44
2022-11-16T04:18:57.921Z,99960.50
2022-11-16T04:21:48.542Z,99961.00
2022-11-16T04:24:20.893Z,99960.00
2022-11-16T04:27:13.993Z,99950.97
2022-11-16T04:29:42.264Z,99944.09
2022-11-16T04:32:29.944Z,99947.81
2022-11-16T04:35:17.667Z,99932.56
2022-11-16T04:37:49.785Z,99924.09
2022-11-16T04:40:26.762Z,99920.91
2022-11-16T04:42:57.981Z,99904.50
2022-11-16T04:45:47.002Z,99913.16
2022-11-16T04:48:19.581Z,99896.50
2022-11-16T04:50:48.265Z,99907.59
2022-11-16T04:53:18.473Z,99908.34
2022-11-16T04:55:54.355Z,99903.44
2022-11-16T04:58:26.102Z,99888.94
2022-11-16T05:00:56.114Z,99892.03
2022-11-16T05:03:25.611Z,99888.31
2022-11-16T05:05:53.652Z,99890.31
2022-11-16T05:08:22.462Z,99894.03
2022-11-16T05:10:52.536Z,99887.53
2022-11-16T05:13:22.724Z,99892.06
2022-11-16T05:15:53.954Z,99885.56
2022-11-16T05:18:22.676Z,99884.56
2022-11-16T05:21:00.817Z,99882.34
2022-11-16T05:23:51.472Z,99879.25
2022-11-16T05:26:22.662Z,99881.59
2022-11-16T05:28:52.373Z,99882.19
2022-11-16T05:31:21.808Z,99884.25
2022-11-16T05:33:50.502Z,99888.50
2022-11-16T05:36:20.523Z,99892.97
2022-11-16T05:38:52.615Z,99896.41
2022-11-16T05:41:24.012Z,99898.63
2022-11-16T05:43:55.533Z,99895.81
2022-11-16T05:46:24.373Z,99896.19
2022-11-16T05:48:52.912Z,99888.06
2022-11-16T05:51:21.703Z,99900.50
2022-11-16T05:53:50.163Z,99901.88
2022-11-16T05:56:22.753Z,99898.56
2022-11-16T05:58:53.214Z,99882.72
2022-11-16T06:01:22.243Z,99886.66
2022-11-16T06:03:52.636Z,99893.25
2022-11-16T06:06:21.219Z,99891.38
2022-11-16T06:08:51.596Z,99887.94
2022-11-16T06:11:25.484Z,99882.25
2022-11-16T06:13:53.953Z,99880.53
2022-11-16T06:16:22.152Z,99876.94
2022-11-16T06:18:51.828Z,99873.34
2022-11-16T06:21:20.803Z,99869.13
2022-11-16T06:23:49.813Z,99866.47
2022-11-16T06:26:17.994Z,99869.44
2022-11-16T06:28:47.662Z,99858.13
2022-11-16T06:31:15.862Z,99860.06
2022-11-16T06:33:44.386Z,99860.38
2022-11-16T06:36:23.353Z,99855.75
2022-11-16T06:38:51.914Z,99852.31
2022-11-16T06:41:22.523Z,99844.91
2022-11-16T06:43:53.903Z,99842.81
2022-11-16T06:46:26.353Z,99838.69
2022-11-16T06:48:56.603Z,99843.06
2022-11-16T06:51:24.756Z,99847.50
2022-11-16T06:53:53.132Z,99845.63
2022-11-16T06:56:22.890Z,99845.09
2022-11-16T06:58:57.483Z,99840.25
2022-11-16T07:01:28.095Z,99837.03
2022-11-16T07:04:04.166Z,99817.59
2022-11-16T07:06:32.811Z,99812.28
2022-11-16T07:09:02.106Z,99818.53
2022-11-16T07:11:32.563Z,99808.00
2022-11-16T07:14:01.542Z,99811.63
2022-11-16T07:16:30.773Z,99807.06
2022-11-16T07:19:04.777Z,99797.84
2022-11-16T07:21:35.054Z,99789.19
2022-11-16T07:24:07.340Z,99793.09
2022-11-16T07:26:35.801Z,99796.38
2022-11-16T07:29:11.576Z,99793.72
2022-11-16T07:31:44.283Z,99786.84
2022-11-16T07:34:30.382Z,99772.06
2022-11-16T07:37:08.604Z,99768.47
2022-11-16T07:39:37.745Z,99762.78
2022-11-16T07:42:11.952Z,99762.53
2022-11-16T07:44:53.765Z,99758.19
2022-11-16T07:47:21.793Z,99767.22
2022-11-16T07:49:50.718Z,99758.94
2022-11-16T07:52:25.595Z,99758.13
2022-11-16T07:55:03.504Z,99766.38
2022-11-16T07:57:32.225Z,99772.22
2022-11-16T08:00:06.063Z,99776.44
2022-11-16T08:02:49.143Z,99773.31
2022-11-16T08:05:22.285Z,99761.47
2022-11-16T08:07:52.157Z,99757.81
2022-11-16T08:10:25.884Z,99754.59
2022-11-16T08:12:56.023Z,99767.84
2022-11-16T08:15:27.126Z,99769.44
2022-11-16T08:17:55.245Z,99777.13
2022-11-16T08:20:24.595Z,99771.69
2022-11-16T08:22:52.805Z,99779.78
2022-11-16T08:25:21.195Z,99788.00
2022-11-16T08:27:49.373Z,99790.66
2022-11-16T08:30:21.354Z,99785.94
2022-11-16T08:32:49.937Z,99793.31
2022-11-16T08:35:18.717Z,99792.97
2022-11-16T08:37:47.482Z,99790.03
2022-11-16T08:40:17.134Z,99790.03
2022-11-16T08:42:45.302Z,99786.88
2022-11-16T08:45:14.535Z,99799.69
2022-11-16T08:47:43.483Z,99801.72
2022-11-16T08:50:12.011Z,99799.06
2022-11-16T08:52:40.278Z,99797.81
2022-11-16T08:55:10.723Z,99795.94
2022-11-16T08:57:40.617Z,99800.47
2022-11-16T09:00:13.742Z,99800.41
2022-11-16T09:02:41.873Z,99796.56
2022-11-16T09:05:12.327Z,99784.50
2022-11-16T09:07:40.950Z,99785.34
2022-11-16T09:10:10.772Z,99781.91
2022-11-16T09:12:39.496Z,99793.69
2022-11-16T09:15:08.556Z,99786.13
2022-11-16T09:17:36.614Z,99791.44
2022-11-16T09:20:06.113Z,99797.81
2022-11-16T09:22:35.134Z,99796.53
2022-11-16T09:25:03.866Z,99798.25
2022-11-16T09:27:32.027Z,99798.25
2022-11-16T09:30:00.441Z,99801.69
2022-11-16T09:32:28.603Z,99800.28
2022-11-16T09:34:58.162Z,99807.06
2022-11-16T09:37:44.861Z,99808.00
2022-11-16T09:40:13.382Z,99811.44
2022-11-16T09:43:05.424Z,99807.13
2022-11-16T09:46:00.315Z,99801.69
2022-11-16T09:48:28.782Z,99805.91
2022-11-16T09:51:02.002Z,99799.59
2022-11-16T09:53:44.525Z,99794.34
2022-11-16T09:56:22.447Z,99782.50
2022-11-16T09:59:06.482Z,99771.91
2022-11-16T10:01:55.411Z,99754.78
2022-11-16T10:04:37.156Z,99754.84
2022-11-16T10:07:12.128Z,99743.25
2022-11-16T10:09:41.062Z,99722.19
2022-11-16T10:12:22.612Z,99699.25
2022-11-16T10:15:09.953Z,99694.59
2022-11-16T10:18:08.523Z,99703.63
2022-11-16T10:20:55.032Z,99707.06
2022-11-16T10:23:50.122Z,99699.72
2022-11-16T10:26:28.393Z,99712.34
2022-11-16T10:29:10.431Z,99698.53
2022-11-16T10:32:10.542Z,99693.19
2022-11-16T10:34:57.478Z,99693.03
2022-11-16T10:37:33.563Z,99676.97
2022-11-16T10:40:26.512Z,99678.84
2022-11-16T10:43:01.706Z,99671.38
2022-11-16T10:46:05.496Z,99668.47
2022-11-16T10:48:42.765Z,99668.41
2022-11-16T10:51:11.230Z,99665.31
2022-11-16T10:53:41.952Z,99657.19
2022-11-16T10:56:17.649Z,99652.91
2022-11-16T10:59:09.627Z,99647.91
2022-11-16T11:01:46.584Z,99636.59
2022-11-16T11:04:17.653Z,99631.16
2022-11-16T11:06:48.341Z,99631.72
2022-11-16T11:09:21.952Z,99637.22
2022-11-16T11:12:30.693Z,99633.88
2022-11-16T11:15:00.342Z,99629.66
2022-11-16T11:17:30.403Z,99621.34
2022-11-16T11:20:06.031Z,99618.00
2022-11-16T11:22:51.402Z,99606.53
2022-11-16T11:25:30.846Z,99606.06
2022-11-16T11:28:19.385Z,99601.00
2022-11-16T11:31:13.953Z,99593.13
2022-11-16T11:34:20.761Z,99597.66
2022-11-16T11:37:02.644Z,99589.84
2022-11-16T11:39:36.036Z,99589.06
2022-11-16T11:42:18.932Z,99587.19
2022-11-16T11:44:58.457Z,99574.97
2022-11-16T11:50:42.542Z,99571.00
2022-11-16T11:53:19.523Z,99579.66
2022-11-16T11:55:55.893Z,99583.00
2022-11-16T11:58:35.873Z,99583.31
2022-11-16T12:01:25.966Z,99593.75
2022-11-16T12:04:28.971Z,99585.03
2022-11-16T12:07:09.149Z,99577.06
2022-11-16T12:10:19.952Z,99573.19
2022-11-16T12:13:07.653Z,99572.88
2022-11-16T12:15:54.233Z,99583.31
2022-11-16T12:18:26.361Z,99579.41
2022-11-16T12:21:05.535Z,99579.22
2022-11-16T12:23:35.166Z,99563.16
2022-11-16T12:26:34.204Z,99563.63
2022-11-16T12:29:17.289Z,99568.47
2022-11-16T12:32:03.411Z,99557.34
2022-11-16T12:34:49.700Z,99539.47
2022-11-16T12:37:36.351Z,99550.69
2022-11-16T12:40:16.271Z,99551.78
2022-11-16T12:42:47.561Z,99548.16
2022-11-16T12:45:32.591Z,99538.06
2022-11-16T12:48:30.292Z,99534.31
2022-11-16T12:51:43.025Z,99532.94
2022-11-16T12:54:29.451Z,99528.34
2022-11-16T12:57:26.261Z,99524.66
2022-11-16T13:00:16.931Z,99520.53
2022-11-16T13:03:15.332Z,99518.03
2022-11-16T13:05:50.564Z,99513.91
2022-11-16T13:08:33.201Z,99504.53
2022-11-16T13:11:43.966Z,99508.25
2022-11-16T13:14:17.818Z,99515.97
2022-11-16T13:16:47.050Z,99514.56
2022-11-16T13:19:18.454Z,99504.31
2022-11-16T13:22:00.005Z,99504.41
2022-11-16T13:24:58.901Z,99499.78
2022-11-16T13:27:44.853Z,99500.56
2022-11-16T13:30:27.392Z,99497.91
2022-11-16T13:33:08.632Z,99495.41
2022-11-16T13:35:39.724Z,99491.50
2022-11-16T13:38:13.802Z,99493.31
2022-11-16T13:40:42.354Z,99484.34
2022-11-16T13:43:10.265Z,99475.94
2022-11-16T13:45:49.011Z,99482.78
2022-11-16T13:48:22.791Z,99491.66
2022-11-16T13:50:56.577Z,99484.19
2022-11-16T13:56:29.423Z,99478.50
2022-11-16T13:58:58.585Z,99471.69
2022-11-16T14:01:54.692Z,99487.59
2022-11-16T14:04:42.592Z,99470.16
2022-11-16T14:07:35.437Z,99479.97
2022-11-16T14:10:06.283Z,99489.25
2022-11-16T14:12:37.643Z,99484.19
2022-11-16T14:15:26.974Z,99496.47
2022-11-16T14:17:59.896Z,99503.31
2022-11-16T14:20:40.391Z,99496.81
2022-11-16T14:23:28.851Z,99490.69
2022-11-16T14:26:17.091Z,99489.13
2022-11-16T14:29:20.849Z,99488.53
2022-11-16T14:31:59.512Z,99488.94
2022-11-16T14:34:41.090Z,99485.88
2022-11-16T14:37:39.531Z,99485.13
2022-11-16T14:40:19.045Z,99483.66
2022-11-16T14:43:15.320Z,99473.91
2022-11-16T14:45:53.359Z,99463.41
2022-11-16T14:48:23.099Z,99471.72
2022-11-16T14:51:26.680Z,99462.69
2022-11-16T14:54:01.324Z,99468.25
2022-11-16T14:56:29.609Z,99476.00
2022-11-16T14:59:01.370Z,99476.25
2022-11-16T15:01:39.969Z,99472.97
2022-11-16T15:04:10.251Z,99477.66
2022-11-16T15:06:49.117Z,99463.47
2022-11-16T15:09:23.214Z,99463.31
2022-11-16T15:12:15.100Z,99460.97
2022-11-16T15:14:54.464Z,99468.44
2022-11-16T15:17:31.901Z,99480.38
2022-11-16T15:20:14.854Z,99460.56
2022-11-16T15:22:46.090Z,99467.50
2022-11-16T15:25:44.330Z,99462.59
2022-11-16T15:28:17.013Z,99462.22
2022-11-16T15:30:49.301Z,99461.84
2022-11-16T15:33:26.771Z,99465.41
2022-11-16T15:35:56.020Z,99464.25
2022-11-16T15:38:30.150Z,99462.97
2022-11-16T15:41:00.209Z,99464.50
2022-11-16T15:43:55.440Z,99466.75
2022-11-16T15:46:33.670Z,99459.75
2022-11-16T15:49:02.575Z,99459.75
2022-11-16T15:51:31.422Z,99454.59
2022-11-16T15:54:51.989Z,99466.06
2022-11-16T15:57:22.229Z,99472.81
2022-11-16T15:59:54.927Z,99479.81
2022-11-16T16:02:27.741Z,99480.59
2022-11-16T16:04:56.669Z,99472.56
2022-11-16T16:07:38.322Z,99472.34
2022-11-16T16:10:23.453Z,99467.22
2022-11-16T16:12:58.651Z,99466.53
2022-11-16T16:15:36.843Z,99465.25
2022-11-16T16:18:14.521Z,99470.94
2022-11-16T16:20:47.654Z,99467.53
2022-11-16T16:23:16.650Z,99471.09
2022-11-16T16:25:50.350Z,99482.94
2022-11-16T16:28:18.816Z,99479.34
2022-11-16T16:30:51.215Z,99487.72
2022-11-16T16:33:19.787Z,99490.38
2022-11-16T16:35:49.934Z,99493.97
2022-11-16T16:38:17.969Z,99499.66
2022-11-16T16:40:46.291Z,99501.78
2022-11-16T16:43:14.711Z,99485.72
2022-11-16T16:45:44.070Z,99499.13
2022-11-16T16:48:13.017Z,99495.88
2022-11-16T16:50:41.346Z,99507.53
2022-11-16T16:53:13.322Z,99507.69
2022-11-16T16:55:42.373Z,99506.84
2022-11-16T16:58:12.272Z,99510.63
2022-11-16T17:00:41.280Z,99506.06
2022-11-16T17:03:09.319Z,99507.41
2022-11-16T17:05:38.209Z,99505.88
2022-11-16T17:08:06.671Z,99504.16
2022-11-16T17:10:38.169Z,99499.19
2022-11-16T17:13:06.357Z,99496.63
2022-11-16T17:15:34.764Z,99497.69
2022-11-16T17:18:02.774Z,99498.25
2022-11-16T17:20:31.071Z,99494.94
2022-11-16T17:22:59.102Z,99503.94
2022-11-16T17:25:27.420Z,99507.63
2022-11-16T17:27:55.483Z,99513.94
2022-11-16T17:30:23.821Z,99517.22
2022-11-16T17:32:53.010Z,99513.94
2022-11-16T17:35:21.270Z,99511.31
2022-11-16T17:37:49.931Z,99518.75
2022-11-16T17:40:18.432Z,99524.06
2022-11-16T17:42:46.380Z,99522.00
2022-11-16T17:45:14.794Z,99527.06
2022-11-16T17:47:42.833Z,99530.72
2022-11-16T17:50:11.182Z,99520.09
2022-11-16T17:52:39.266Z,99527.41
2022-11-16T17:55:08.501Z,99529.78
2022-11-16T17:57:37.305Z,99529.06
2022-11-16T18:00:06.542Z,99535.47
2022-11-16T18:02:35.083Z,99534.44
2022-11-16T18:05:03.770Z,99533.09
2022-11-16T18:07:33.620Z,99528.19
2022-11-16T18:10:02.180Z,99530.06
2022-11-16T18:12:30.191Z,99526.63
2022-11-16T18:15:26.490Z,99525.97
2022-11-16T18:17:46.649Z,99530.41
2022-11-16T18:20:16.125Z,99530.41
2022-11-16T18:22:44.145Z,99533.25
2022-11-16T18:25:12.353Z,99536.75
2022-11-16T18:27:40.309Z,99536.28
2022-11-16T18:30:09.080Z,99539.69
2022-11-16T18:32:37.447Z,99543.31
2022-11-16T18:35:10.099Z,99548.63
2022-11-16T18:37:40.648Z,99541.78
2022-11-16T18:40:12.348Z,99540.94
2022-11-16T18:42:42.141Z,99542.47
2022-11-16T18:45:10.800Z,99536.66
2022-11-16T18:47:39.907Z,99539.91
2022-11-16T18:50:19.071Z,99554.28
2022-11-16T18:52:48.776Z,99543.25
2022-11-16T18:55:18.537Z,99540.59
2022-11-16T18:57:46.987Z,99547.25
2022-11-16T19:00:16.567Z,99549.41
2022-11-16T19:02:44.788Z,99558.06
2022-11-16T19:05:13.415Z,99551.75
2022-11-16T19:07:41.808Z,99559.56
2022-11-16T19:10:10.757Z,99565.97
2022-11-16T19:12:39.138Z,99550.06
2022-11-16T19:15:09.180Z,99550.41
2022-11-16T19:17:48.124Z,99563.84
2022-11-16T19:20:26.537Z,99561.38
2022-11-16T19:22:54.856Z,99572.19
2022-11-16T19:25:25.277Z,99572.19
2022-11-16T19:27:53.559Z,99583.66
2022-11-16T19:30:22.549Z,99583.13
2022-11-16T19:32:56.979Z,99581.41
2022-11-16T19:35:26.474Z,99572.59
2022-11-16T19:37:55.664Z,99572.69
2022-11-16T19:40:25.253Z,99569.16
2022-11-16T19:42:53.798Z,99564.09
2022-11-16T19:45:22.414Z,99567.78
2022-11-16T19:47:50.783Z,99567.72
2022-11-16T19:50:20.828Z,99568.41
2022-11-16T19:52:49.025Z,99578.50
2022-11-16T19:55:18.055Z,99576.78
2022-11-16T19:57:46.857Z,99582.16
2022-11-16T20:00:17.428Z,99578.03
2022-11-16T20:02:45.644Z,99583.44
2022-11-16T20:05:14.357Z,99580.53
2022-11-16T20:07:44.846Z,99587.56
2022-11-16T20:10:13.433Z,99580.97
2022-11-16T20:12:41.812Z,99585.06
2022-11-16T20:15:10.797Z,99576.69
2022-11-16T20:17:39.079Z,99573.50
2022-11-16T20:20:08.379Z,99570.44
2022-11-16T20:22:36.829Z,99553.69
2022-11-16T20:25:05.730Z,99541.44
2022-11-16T20:27:35.288Z,99541.19
2022-11-16T20:30:09.786Z,99526.28
2022-11-16T20:32:38.234Z,99527.16
2022-11-16T20:35:07.249Z,99534.41
2022-11-16T20:37:38.025Z,99528.00
2022-11-16T20:40:08.294Z,99524.59
2022-11-16T20:42:37.216Z,99526.53
2022-11-16T20:45:07.103Z,99531.44
2022-11-16T20:47:35.304Z,99526.78
2022-11-16T20:50:05.644Z,99535.88
2022-11-16T20:52:38.187Z,99532.94
2022-11-16T20:55:10.139Z,99525.59
2022-11-16T20:57:38.865Z,99517.88
2022-11-16T21:00:08.159Z,99520.19
2022-11-16T21:02:36.484Z,99529.53
2022-11-16T21:05:05.703Z,99536.38
2022-11-16T21:07:34.024Z,99539.28
2022-11-16T21:10:21.205Z,99551.09
2022-11-16T21:13:08.212Z,99549.22
2022-11-16T21:15:36.778Z,99548.69
2022-11-16T21:18:05.632Z,99548.28
2022-11-16T21:20:34.647Z,99543.16
2022-11-16T21:23:03.864Z,99549.22
2022-11-16T21:25:33.538Z,99556.50
2022-11-16T21:28:02.915Z,99562.41
2022-11-16T21:30:31.739Z,99552.72
2022-11-16T21:33:01.847Z,99560.84
2022-11-16T21:35:30.626Z,99561.47
2022-11-16T21:37:59.699Z,99568.22
2022-11-16T21:40:30.101Z,99573.19
2022-11-16T21:42:58.369Z,99578.56
2022-11-16T21:45:28.473Z,99581.38
2022-11-16T21:47:57.666Z,99580.38
2022-11-16T21:50:31.743Z,99574.53
2022-11-16T21:53:01.033Z,99578.66
2022-11-16T21:55:29.707Z,99590.31
2022-11-16T21:58:01.169Z,99591.31
2022-11-16T22:00:30.269Z,99599.38
2022-11-16T22:02:58.504Z,99608.59
2022-11-16T22:05:45.797Z,99603.19
2022-11-16T22:08:14.107Z,99605.84
2022-11-16T22:10:43.525Z,99600.72
2022-11-16T22:13:12.009Z,99600.81
2022-11-16T22:15:40.576Z,99598.22
2022-11-16T22:18:08.845Z,99595.69
2022-11-16T22:20:37.488Z,99584.31
2022-11-16T22:23:06.176Z,99576.50
2022-11-16T22:25:36.889Z,99569.56
2022-11-16T22:28:20.050Z,99567.69
2022-11-16T22:30:52.263Z,99572.41
2022-11-16T22:33:20.884Z,99571.47
2022-11-16T22:35:49.372Z,99570.59
2022-11-16T22:38:17.554Z,99576.94
2022-11-16T22:40:53.373Z,99571.22
2022-11-16T22:43:26.962Z,99571.31
2022-11-16T22:46:03.331Z,99569.59
2022-11-16T22:48:34.356Z,99559.06
2022-11-16T22:51:10.044Z,99547.59
2022-11-16T22:53:38.633Z,99546.56
2022-11-16T22:56:08.749Z,99546.13
2022-11-16T22:58:38.097Z,99545.38
2022-11-16T23:01:08.299Z,99556.88
2022-11-16T23:03:37.651Z,99553.50
2022-11-16T23:06:07.424Z,99547.34
2022-11-16T23:08:36.433Z,99543.22
2022-11-16T23:11:26.679Z,99533.53
2022-11-16T23:14:14.483Z,99523.72
2022-11-16T23:16:43.888Z,99528.16
2022-11-16T23:19:33.335Z,99525.41
2022-11-16T23:22:20.305Z,99516.69
2022-11-16T23:25:20.975Z,99507.78
2022-11-16T23:27:58.835Z,99512.66
2022-11-16T23:30:27.146Z,99509.66
2022-11-16T23:32:55.825Z,99503.00
2022-11-16T23:35:24.163Z,99502.31
2022-11-16T23:37:57.945Z,99501.72
2022-11-16T23:40:40.105Z,99499.94
2022-11-16T23:43:28.920Z,99516.78
2022-11-16T23:45:57.163Z,99519.44
2022-11-16T23:48:25.691Z,99509.69
2022-11-16T23:50:54.078Z,99521.16
2022-11-16T23:53:22.528Z,99523.44
2022-11-16T23:55:50.742Z,99532.53
2022-11-16T23:58:19.406Z,99542.28
